Aviation Digital Data Service (ADDS)

Output produced by METARs form (2249 UTC 15 February 2019)
found at http://www.aviationweather.gov/metar/data/
 
METAR text: LSZS 152220Z AUTO 20003KT CAVOK M10/M12 Q1033
Conditions at: LSZS (SAMEDAN , CH) observed 2220 UTC 15 February 2019
Temperature: -10.0°C (14°F)
Dewpoint: -12.0°C (10°F) [RH = 85%]
Pressure (altimeter): 30.50 inches Hg (1033.0 mb)
Winds: from the SSW (200 degrees) at 3 MPH (3 knots; 1.5 m/s)
Visibility: 6 or more miles (10+ km)
Ceiling: ceiling and visibility are OK
Clouds: unknown
Weather: no significant weather observed at this time

METAR text: LSZS 152150Z AUTO 20002KT CAVOK M10/M13 Q1033
Conditions at: LSZS (SAMEDAN , CH) observed 2150 UTC 15 February 2019
Temperature: -10.0°C (14°F)
Dewpoint: -13.0°C ( 9°F) [RH = 79%]
Pressure (altimeter): 30.50 inches Hg (1033.0 mb)
Winds: from the SSW (200 degrees) at 2 MPH (2 knots; 1.0 m/s)
Visibility: 6 or more miles (10+ km)
Ceiling: ceiling and visibility are OK
Clouds: unknown
Weather: no significant weather observed at this time

METAR text: LSZS 152120Z AUTO 19002KT CAVOK M10/M13 Q1033
Conditions at: LSZS (SAMEDAN , CH) observed 2120 UTC 15 February 2019
Temperature: -10.0°C (14°F)
Dewpoint: -13.0°C ( 9°F) [RH = 79%]
Pressure (altimeter): 30.50 inches Hg (1033.0 mb)
Winds: from the S (190 degrees) at 2 MPH (2 knots; 1.0 m/s)
Visibility: 6 or more miles (10+ km)
Ceiling: ceiling and visibility are OK
Clouds: unknown
Weather: no significant weather observed at this time

METAR text: LSZS 152050Z AUTO 20003KT CAVOK M10/M13 Q1033
Conditions at: LSZS (SAMEDAN , CH) observed 2050 UTC 15 February 2019
Temperature: -10.0°C (14°F)
Dewpoint: -13.0°C ( 9°F) [RH = 79%]
Pressure (altimeter): 30.50 inches Hg (1033.0 mb)
Winds: from the SSW (200 degrees) at 3 MPH (3 knots; 1.5 m/s)
Visibility: 6 or more miles (10+ km)
Ceiling: ceiling and visibility are OK
Clouds: unknown
Weather: no significant weather observed at this time

METAR text: LSZS 152020Z AUTO VRB02KT CAVOK M10/M13 Q1033
Conditions at: LSZS (SAMEDAN , CH) observed 2020 UTC 15 February 2019
Temperature: -10.0°C (14°F)
Dewpoint: -13.0°C ( 9°F) [RH = 79%]
Pressure (altimeter): 30.50 inches Hg (1033.0 mb)
Winds: variable direction winds at 2 MPH (2 knots; 1.0 m/s)
Visibility: 6 or more miles (10+ km)
Ceiling: ceiling and visibility are OK
Clouds: unknown
Weather: no significant weather observed at this time

METAR text: LSZS 151950Z AUTO VRB01KT CAVOK M10/M14 Q1032
Conditions at: LSZS (SAMEDAN , CH) observed 1950 UTC 15 February 2019
Temperature: -10.0°C (14°F)
Dewpoint: -14.0°C ( 7°F) [RH = 72%]
Pressure (altimeter): 30.47 inches Hg (1032.0 mb)
Winds: variable direction winds at 1 MPH (1 knots; 0.5 m/s)
Visibility: 6 or more miles (10+ km)
Ceiling: ceiling and visibility are OK
Clouds: unknown
Weather: no significant weather observed at this time

METAR text: LSZS 151920Z AUTO 20001KT CAVOK M10/M14 Q1032
Conditions at: LSZS (SAMEDAN , CH) observed 1920 UTC 15 February 2019
Temperature: -10.0°C (14°F)
Dewpoint: -14.0°C ( 7°F) [RH = 72%]
Pressure (altimeter): 30.47 inches Hg (1032.0 mb)
Winds: from the SSW (200 degrees) at 1 MPH (1 knots; 0.5 m/s)
Visibility: 6 or more miles (10+ km)
Ceiling: ceiling and visibility are OK
Clouds: unknown
Weather: no significant weather observed at this time

METAR text: LSZS 151850Z AUTO VRB02KT CAVOK M05/M10 Q1032
Conditions at: LSZS (SAMEDAN , CH) observed 1850 UTC 15 February 2019
Temperature: -5.0°C (23°F)
Dewpoint: -10.0°C (14°F) [RH = 68%]
Pressure (altimeter): 30.47 inches Hg (1032.0 mb)
Winds: variable direction winds at 2 MPH (2 knots; 1.0 m/s)
Visibility: 6 or more miles (10+ km)
Ceiling: ceiling and visibility are OK
Clouds: unknown
Weather: no significant weather observed at this time

METAR text: LSZS 151820Z AUTO 19003KT CAVOK M06/M10 Q1032
Conditions at: LSZS (SAMEDAN , CH) observed 1820 UTC 15 February 2019
Temperature: -6.0°C (21°F)
Dewpoint: -10.0°C (14°F) [RH = 73%]
Pressure (altimeter): 30.47 inches Hg (1032.0 mb)
Winds: from the S (190 degrees) at 3 MPH (3 knots; 1.5 m/s)
Visibility: 6 or more miles (10+ km)
Ceiling: ceiling and visibility are OK
Clouds: unknown
Weather: no significant weather observed at this time

METAR text: LSZS 151750Z AUTO VRB02KT CAVOK M04/M10 Q1032
Conditions at: LSZS (SAMEDAN , CH) observed 1750 UTC 15 February 2019
Temperature: -4.0°C (25°F)
Dewpoint: -10.0°C (14°F) [RH = 63%]
Pressure (altimeter): 30.47 inches Hg (1032.0 mb)
Winds: variable direction winds at 2 MPH (2 knots; 1.0 m/s)
Visibility: 6 or more miles (10+ km)
Ceiling: ceiling and visibility are OK
Clouds: unknown
Weather: no significant weather observed at this time

METAR text: LSZS 151720Z 21004KT CAVOK M03/M10 Q1031 RMK V
Conditions at: LSZS (SAMEDAN , CH) observed 1720 UTC 15 February 2019
Temperature: -3.0°C (27°F)
Dewpoint: -10.0°C (14°F) [RH = 58%]
Pressure (altimeter): 30.44 inches Hg (1031.0 mb)
Winds: from the SSW (210 degrees) at 5 MPH (4 knots; 2.1 m/s)
Visibility: 6 or more miles (10+ km)
Ceiling: ceiling and visibility are OK
Clouds: unknown
Weather: no significant weather observed at this time

METAR text: LSZS 151650Z VRB02KT CAVOK M01/M09 Q1031 RMK U
Conditions at: LSZS (SAMEDAN , CH) observed 1650 UTC 15 February 2019
Temperature: -1.0°C (30°F)
Dewpoint: -9.0°C (16°F) [RH = 55%]
Pressure (altimeter): 30.44 inches Hg (1031.0 mb)
Winds: variable direction winds at 2 MPH (2 knots; 1.0 m/s)
Visibility: 6 or more miles (10+ km)
Ceiling: ceiling and visibility are OK
Clouds: unknown
Weather: no significant weather observed at this time

METAR text: LSZS 151620Z VRB01KT CAVOK 01/M09 Q1031 RMK T
Conditions at: LSZS (SAMEDAN , CH) observed 1620 UTC 15 February 2019
Temperature: 1.0°C (34°F)
Dewpoint: -9.0°C (16°F) [RH = 47%]
Pressure (altimeter): 30.44 inches Hg (1031.0 mb)
Winds: variable direction winds at 1 MPH (1 knots; 0.5 m/s)
Visibility: 6 or more miles (10+ km)
Ceiling: ceiling and visibility are OK
Clouds: unknown
Weather: no significant weather observed at this time

METAR text: LSZS 151550Z VRB01KT CAVOK 03/M09 Q1030 RMK S
Conditions at: LSZS (SAMEDAN , CH) observed 1550 UTC 15 February 2019
Temperature: 3.0°C (37°F)
Dewpoint: -9.0°C (16°F) [RH = 41%]
Pressure (altimeter): 30.41 inches Hg (1030.0 mb)
Winds: variable direction winds at 1 MPH (1 knots; 0.5 m/s)
Visibility: 6 or more miles (10+ km)
Ceiling: ceiling and visibility are OK
Clouds: unknown
Weather: no significant weather observed at this time

METAR text: LSZS 151520Z VRB01KT CAVOK 05/M11 Q1030 RMK R
Conditions at: LSZS (SAMEDAN , CH) observed 1520 UTC 15 February 2019
Temperature: 5.0°C (41°F)
Dewpoint: -11.0°C (12°F) [RH = 30%]
Pressure (altimeter): 30.41 inches Hg (1030.0 mb)
Winds: variable direction winds at 1 MPH (1 knots; 0.5 m/s)
Visibility: 6 or more miles (10+ km)
Ceiling: ceiling and visibility are OK
Clouds: unknown
Weather: no significant weather observed at this time

METAR text: LSZS 151450Z 33003KT 260V020 CAVOK 06/M10 Q1031 RMK Q
Conditions at: LSZS (SAMEDAN , CH) observed 1450 UTC 15 February 2019
Temperature: 6.0°C (43°F)
Dewpoint: -10.0°C (14°F) [RH = 31%]
Pressure (altimeter): 30.44 inches Hg (1031.0 mb)
Winds: from the NNW (330 degrees) at 3 MPH (3 knots; 1.5 m/s)
Visibility: 6 or more miles (10+ km)
Ceiling: ceiling and visibility are OK
Clouds: unknown
Weather: no significant weather observed at this time

METAR text: LSZS 151420Z VRB02KT CAVOK 07/M11 Q1031 RMK P
Conditions at: LSZS (SAMEDAN , CH) observed 1420 UTC 15 February 2019
Temperature: 7.0°C (45°F)
Dewpoint: -11.0°C (12°F) [RH = 26%]
Pressure (altimeter): 30.44 inches Hg (1031.0 mb)
Winds: variable direction winds at 2 MPH (2 knots; 1.0 m/s)
Visibility: 6 or more miles (10+ km)
Ceiling: ceiling and visibility are OK
Clouds: unknown
Weather: no significant weather observed at this time

METAR text: LSZS 151350Z VRB01KT CAVOK 05/M13 Q1031 RMK O
Conditions at: LSZS (SAMEDAN , CH) observed 1350 UTC 15 February 2019
Temperature: 5.0°C (41°F)
Dewpoint: -13.0°C ( 9°F) [RH = 26%]
Pressure (altimeter): 30.44 inches Hg (1031.0 mb)
Winds: variable direction winds at 1 MPH (1 knots; 0.5 m/s)
Visibility: 6 or more miles (10+ km)
Ceiling: ceiling and visibility are OK
Clouds: unknown
Weather: no significant weather observed at this time

METAR text: LSZS 151320Z 00000KT CAVOK 05/M15 Q1032 RMK N
Conditions at: LSZS (SAMEDAN , CH) observed 1320 UTC 15 February 2019
Temperature: 5.0°C (41°F)
Dewpoint: -15.0°C ( 5°F) [RH = 22%]
Pressure (altimeter): 30.47 inches Hg (1032.0 mb)
Winds: calm
Visibility: 6 or more miles (10+ km)
Ceiling: ceiling and visibility are OK
Clouds: unknown
Weather: no significant weather observed at this time

METAR text: LSZS 151250Z 00000KT CAVOK 04/M13 Q1032 RMK M
Conditions at: LSZS (SAMEDAN , CH) observed 1250 UTC 15 February 2019
Temperature: 4.0°C (39°F)
Dewpoint: -13.0°C ( 9°F) [RH = 28%]
Pressure (altimeter): 30.47 inches Hg (1032.0 mb)
Winds: calm
Visibility: 6 or more miles (10+ km)
Ceiling: ceiling and visibility are OK
Clouds: unknown
Weather: no significant weather observed at this time

METAR text: LSZS 151220Z VRB01KT CAVOK 02/M12 Q1032 RMK L
Conditions at: LSZS (SAMEDAN , CH) observed 1220 UTC 15 February 2019
Temperature: 2.0°C (36°F)
Dewpoint: -12.0°C (10°F) [RH = 35%]
Pressure (altimeter): 30.47 inches Hg (1032.0 mb)
Winds: variable direction winds at 1 MPH (1 knots; 0.5 m/s)
Visibility: 6 or more miles (10+ km)
Ceiling: ceiling and visibility are OK
Clouds: unknown
Weather: no significant weather observed at this time

METAR text: LSZS 151150Z VRB01KT CAVOK 00/M11 Q1033 RMK K
Conditions at: LSZS (SAMEDAN , CH) observed 1150 UTC 15 February 2019
Temperature: 0.0°C (32°F)
Dewpoint: -11.0°C (12°F) [RH = 43%]
Pressure (altimeter): 30.50 inches Hg (1033.0 mb)
Winds: variable direction winds at 1 MPH (1 knots; 0.5 m/s)
Visibility: 6 or more miles (10+ km)
Ceiling: ceiling and visibility are OK
Clouds: unknown
Weather: no significant weather observed at this time

METAR text: LSZS 151120Z 00000KT CAVOK M04/M11 Q1033 RMK J
Conditions at: LSZS (SAMEDAN , CH) observed 1120 UTC 15 February 2019
Temperature: -4.0°C (25°F)
Dewpoint: -11.0°C (12°F) [RH = 58%]
Pressure (altimeter): 30.50 inches Hg (1033.0 mb)
Winds: calm
Visibility: 6 or more miles (10+ km)
Ceiling: ceiling and visibility are OK
Clouds: unknown
Weather: no significant weather observed at this time

METAR text: LSZS 151050Z VRB01KT CAVOK M04/M12 Q1033 RMK I
Conditions at: LSZS (SAMEDAN , CH) observed 1050 UTC 15 February 2019
Temperature: -4.0°C (25°F)
Dewpoint: -12.0°C (10°F) [RH = 54%]
Pressure (altimeter): 30.50 inches Hg (1033.0 mb)
Winds: variable direction winds at 1 MPH (1 knots; 0.5 m/s)
Visibility: 6 or more miles (10+ km)
Ceiling: ceiling and visibility are OK
Clouds: unknown
Weather: no significant weather observed at this time

METAR text: LSZS 151020Z VRB01KT CAVOK M07/M13 Q1034 RMK H
Conditions at: LSZS (SAMEDAN , CH) observed 1020 UTC 15 February 2019
Temperature: -7.0°C (19°F)
Dewpoint: -13.0°C ( 9°F) [RH = 62%]
Pressure (altimeter): 30.53 inches Hg (1034.0 mb)
Winds: variable direction winds at 1 MPH (1 knots; 0.5 m/s)
Visibility: 6 or more miles (10+ km)
Ceiling: ceiling and visibility are OK
Clouds: unknown
Weather: no significant weather observed at this time

METAR text: LSZS 150950Z VRB01KT CAVOK M09/M13 Q1034 RMK G
Conditions at: LSZS (SAMEDAN , CH) observed 0950 UTC 15 February 2019
Temperature: -9.0°C (16°F)
Dewpoint: -13.0°C ( 9°F) [RH = 73%]
Pressure (altimeter): 30.53 inches Hg (1034.0 mb)
Winds: variable direction winds at 1 MPH (1 knots; 0.5 m/s)
Visibility: 6 or more miles (10+ km)
Ceiling: ceiling and visibility are OK
Clouds: unknown
Weather: no significant weather observed at this time

METAR text: LSZS 150920Z 24001KT CAVOK M10/M12 Q1034 RMK F
Conditions at: LSZS (SAMEDAN , CH) observed 0920 UTC 15 February 2019
Temperature: -10.0°C (14°F)
Dewpoint: -12.0°C (10°F) [RH = 85%]
Pressure (altimeter): 30.53 inches Hg (1034.0 mb)
Winds: from the WSW (240 degrees) at 1 MPH (1 knots; 0.5 m/s)
Visibility: 6 or more miles (10+ km)
Ceiling: ceiling and visibility are OK
Clouds: unknown
Weather: no significant weather observed at this time

METAR text: LSZS 150850Z VRB01KT CAVOK M12/M14 Q1034 RMK E
Conditions at: LSZS (SAMEDAN , CH) observed 0850 UTC 15 February 2019
Temperature: -12.0°C (10°F)
Dewpoint: -14.0°C ( 7°F) [RH = 85%]
Pressure (altimeter): 30.53 inches Hg (1034.0 mb)
Winds: variable direction winds at 1 MPH (1 knots; 0.5 m/s)
Visibility: 6 or more miles (10+ km)
Ceiling: ceiling and visibility are OK
Clouds: unknown
Weather: no significant weather observed at this time

METAR text: LSZS 150820Z VRB01KT CAVOK M17/M19 Q1034 RMK D
Conditions at: LSZS (SAMEDAN , CH) observed 0820 UTC 15 February 2019
Temperature: -17.0°C ( 1°F)
Dewpoint: -19.0°C (-2°F) [RH = 84%]
Pressure (altimeter): 30.53 inches Hg (1034.0 mb)
Winds: variable direction winds at 1 MPH (1 knots; 0.5 m/s)
Visibility: 6 or more miles (10+ km)
Ceiling: ceiling and visibility are OK
Clouds: unknown
Weather: no significant weather observed at this time

METAR text: LSZS 150750Z 21003KT CAVOK M16/M18 Q1034 RMK C
Conditions at: LSZS (SAMEDAN , CH) observed 0750 UTC 15 February 2019
Temperature: -16.0°C ( 3°F)
Dewpoint: -18.0°C (-0°F) [RH = 85%]
Pressure (altimeter): 30.53 inches Hg (1034.0 mb)
Winds: from the SSW (210 degrees) at 3 MPH (3 knots; 1.5 m/s)
Visibility: 6 or more miles (10+ km)
Ceiling: ceiling and visibility are OK
Clouds: unknown
Weather: no significant weather observed at this time

METAR text: LSZS 150720Z VRB01KT CAVOK M16/M18 Q1034 RMK B
Conditions at: LSZS (SAMEDAN , CH) observed 0720 UTC 15 February 2019
Temperature: -16.0°C ( 3°F)
Dewpoint: -18.0°C (-0°F) [RH = 85%]
Pressure (altimeter): 30.53 inches Hg (1034.0 mb)
Winds: variable direction winds at 1 MPH (1 knots; 0.5 m/s)
Visibility: 6 or more miles (10+ km)
Ceiling: ceiling and visibility are OK
Clouds: unknown
Weather: no significant weather observed at this time

METAR text: LSZS 150650Z 23002KT CAVOK M15/M16 Q1034 RMK A
Conditions at: LSZS (SAMEDAN , CH) observed 0650 UTC 15 February 2019
Temperature: -15.0°C ( 5°F)
Dewpoint: -16.0°C ( 3°F) [RH = 92%]
Pressure (altimeter): 30.53 inches Hg (1034.0 mb)
Winds: from the SW (230 degrees) at 2 MPH (2 knots; 1.0 m/s)
Visibility: 6 or more miles (10+ km)
Ceiling: ceiling and visibility are OK
Clouds: unknown
Weather: no significant weather observed at this time

METAR text: LSZS 150620Z AUTO 21003KT CAVOK M15/M17 Q1034
Conditions at: LSZS (SAMEDAN , CH) observed 0620 UTC 15 February 2019
Temperature: -15.0°C ( 5°F)
Dewpoint: -17.0°C ( 1°F) [RH = 85%]
Pressure (altimeter): 30.53 inches Hg (1034.0 mb)
Winds: from the SSW (210 degrees) at 3 MPH (3 knots; 1.5 m/s)
Visibility: 6 or more miles (10+ km)
Ceiling: ceiling and visibility are OK
Clouds: unknown
Weather: no significant weather observed at this time

METAR text: LSZS 150550Z AUTO VRB01KT CAVOK M15/M16 Q1034
Conditions at: LSZS (SAMEDAN , CH) observed 0550 UTC 15 February 2019
Temperature: -15.0°C ( 5°F)
Dewpoint: -16.0°C ( 3°F) [RH = 92%]
Pressure (altimeter): 30.53 inches Hg (1034.0 mb)
Winds: variable direction winds at 1 MPH (1 knots; 0.5 m/s)
Visibility: 6 or more miles (10+ km)
Ceiling: ceiling and visibility are OK
Clouds: unknown
Weather: no significant weather observed at this time

METAR text: LSZS 150520Z AUTO 21002KT CAVOK M15/M17 Q1034
Conditions at: LSZS (SAMEDAN , CH) observed 0520 UTC 15 February 2019
Temperature: -15.0°C ( 5°F)
Dewpoint: -17.0°C ( 1°F) [RH = 85%]
Pressure (altimeter): 30.53 inches Hg (1034.0 mb)
Winds: from the SSW (210 degrees) at 2 MPH (2 knots; 1.0 m/s)
Visibility: 6 or more miles (10+ km)
Ceiling: ceiling and visibility are OK
Clouds: unknown
Weather: no significant weather observed at this time

METAR text: LSZS 150450Z AUTO VRB01KT CAVOK M17/M19 Q1034
Conditions at: LSZS (SAMEDAN , CH) observed 0450 UTC 15 February 2019
Temperature: -17.0°C ( 1°F)
Dewpoint: -19.0°C (-2°F) [RH = 84%]
Pressure (altimeter): 30.53 inches Hg (1034.0 mb)
Winds: variable direction winds at 1 MPH (1 knots; 0.5 m/s)
Visibility: 6 or more miles (10+ km)
Ceiling: ceiling and visibility are OK
Clouds: unknown
Weather: no significant weather observed at this time

METAR text: LSZS 150420Z AUTO 21002KT CAVOK M15/M16 Q1034
Conditions at: LSZS (SAMEDAN , CH) observed 0420 UTC 15 February 2019
Temperature: -15.0°C ( 5°F)
Dewpoint: -16.0°C ( 3°F) [RH = 92%]
Pressure (altimeter): 30.53 inches Hg (1034.0 mb)
Winds: from the SSW (210 degrees) at 2 MPH (2 knots; 1.0 m/s)
Visibility: 6 or more miles (10+ km)
Ceiling: ceiling and visibility are OK
Clouds: unknown
Weather: no significant weather observed at this time

METAR text: LSZS 150350Z AUTO 21002KT CAVOK M14/M16 Q1034
Conditions at: LSZS (SAMEDAN , CH) observed 0350 UTC 15 February 2019
Temperature: -14.0°C ( 7°F)
Dewpoint: -16.0°C ( 3°F) [RH = 85%]
Pressure (altimeter): 30.53 inches Hg (1034.0 mb)
Winds: from the SSW (210 degrees) at 2 MPH (2 knots; 1.0 m/s)
Visibility: 6 or more miles (10+ km)
Ceiling: ceiling and visibility are OK
Clouds: unknown
Weather: no significant weather observed at this time

METAR text: LSZS 150320Z AUTO VRB02KT CAVOK M17/M19 Q1034
Conditions at: LSZS (SAMEDAN , CH) observed 0320 UTC 15 February 2019
Temperature: -17.0°C ( 1°F)
Dewpoint: -19.0°C (-2°F) [RH = 84%]
Pressure (altimeter): 30.53 inches Hg (1034.0 mb)
Winds: variable direction winds at 2 MPH (2 knots; 1.0 m/s)
Visibility: 6 or more miles (10+ km)
Ceiling: ceiling and visibility are OK
Clouds: unknown
Weather: no significant weather observed at this time

METAR text: LSZS 150250Z AUTO 18002KT CAVOK M13/M15 Q1034
Conditions at: LSZS (SAMEDAN , CH) observed 0250 UTC 15 February 2019
Temperature: -13.0°C ( 9°F)
Dewpoint: -15.0°C ( 5°F) [RH = 85%]
Pressure (altimeter): 30.53 inches Hg (1034.0 mb)
Winds: from the S (180 degrees) at 2 MPH (2 knots; 1.0 m/s)
Visibility: 6 or more miles (10+ km)
Ceiling: ceiling and visibility are OK
Clouds: unknown
Weather: no significant weather observed at this time

METAR text: LSZS 150220Z AUTO 19001KT CAVOK M14/M15 Q1034
Conditions at: LSZS (SAMEDAN , CH) observed 0220 UTC 15 February 2019
Temperature: -14.0°C ( 7°F)
Dewpoint: -15.0°C ( 5°F) [RH = 92%]
Pressure (altimeter): 30.53 inches Hg (1034.0 mb)
Winds: from the S (190 degrees) at 1 MPH (1 knots; 0.5 m/s)
Visibility: 6 or more miles (10+ km)
Ceiling: ceiling and visibility are OK
Clouds: unknown
Weather: no significant weather observed at this time

METAR text: LSZS 150150Z AUTO 20002KT CAVOK M15/M17 Q1034
Conditions at: LSZS (SAMEDAN , CH) observed 0150 UTC 15 February 2019
Temperature: -15.0°C ( 5°F)
Dewpoint: -17.0°C ( 1°F) [RH = 85%]
Pressure (altimeter): 30.53 inches Hg (1034.0 mb)
Winds: from the SSW (200 degrees) at 2 MPH (2 knots; 1.0 m/s)
Visibility: 6 or more miles (10+ km)
Ceiling: ceiling and visibility are OK
Clouds: unknown
Weather: no significant weather observed at this time

METAR text: LSZS 150120Z AUTO 21002KT CAVOK M14/M16 Q1035
Conditions at: LSZS (SAMEDAN , CH) observed 0120 UTC 15 February 2019
Temperature: -14.0°C ( 7°F)
Dewpoint: -16.0°C ( 3°F) [RH = 85%]
Pressure (altimeter): 30.56 inches Hg (1035.0 mb)
Winds: from the SSW (210 degrees) at 2 MPH (2 knots; 1.0 m/s)
Visibility: 6 or more miles (10+ km)
Ceiling: ceiling and visibility are OK
Clouds: unknown
Weather: no significant weather observed at this time

METAR text: LSZS 150050Z AUTO 21001KT CAVOK M13/M14 Q1035
Conditions at: LSZS (SAMEDAN , CH) observed 0050 UTC 15 February 2019
Temperature: -13.0°C ( 9°F)
Dewpoint: -14.0°C ( 7°F) [RH = 92%]
Pressure (altimeter): 30.56 inches Hg (1035.0 mb)
Winds: from the SSW (210 degrees) at 1 MPH (1 knots; 0.5 m/s)
Visibility: 6 or more miles (10+ km)
Ceiling: ceiling and visibility are OK
Clouds: unknown
Weather: no significant weather observed at this time

METAR text: LSZS 150020Z AUTO 19001KT CAVOK M12/M14 Q1035
Conditions at: LSZS (SAMEDAN , CH) observed 0020 UTC 15 February 2019
Temperature: -12.0°C (10°F)
Dewpoint: -14.0°C ( 7°F) [RH = 85%]
Pressure (altimeter): 30.56 inches Hg (1035.0 mb)
Winds: from the S (190 degrees) at 1 MPH (1 knots; 0.5 m/s)
Visibility: 6 or more miles (10+ km)
Ceiling: ceiling and visibility are OK
Clouds: unknown
Weather: no significant weather observed at this time

METAR text: LSZS 142350Z AUTO VRB01KT CAVOK M11/M13 Q1035
Conditions at: LSZS (SAMEDAN , CH) observed 2350 UTC 14 February 2019
Temperature: -11.0°C (12°F)
Dewpoint: -13.0°C ( 9°F) [RH = 85%]
Pressure (altimeter): 30.56 inches Hg (1035.0 mb)
Winds: variable direction winds at 1 MPH (1 knots; 0.5 m/s)
Visibility: 6 or more miles (10+ km)
Ceiling: ceiling and visibility are OK
Clouds: unknown
Weather: no significant weather observed at this time

METAR text: LSZS 142320Z AUTO 19002KT CAVOK M10/M12 Q1035
Conditions at: LSZS (SAMEDAN , CH) observed 2320 UTC 14 February 2019
Temperature: -10.0°C (14°F)
Dewpoint: -12.0°C (10°F) [RH = 85%]
Pressure (altimeter): 30.56 inches Hg (1035.0 mb)
Winds: from the S (190 degrees) at 2 MPH (2 knots; 1.0 m/s)
Visibility: 6 or more miles (10+ km)
Ceiling: ceiling and visibility are OK
Clouds: unknown
Weather: no significant weather observed at this time

METAR text: LSZS 142250Z AUTO VRB02KT CAVOK M13/M16 Q1035
Conditions at: LSZS (SAMEDAN , CH) observed 2250 UTC 14 February 2019
Temperature: -13.0°C ( 9°F)
Dewpoint: -16.0°C ( 3°F) [RH = 78%]
Pressure (altimeter): 30.56 inches Hg (1035.0 mb)
Winds: variable direction winds at 2 MPH (2 knots; 1.0 m/s)
Visibility: 6 or more miles (10+ km)
Ceiling: ceiling and visibility are OK
Clouds: unknown
Weather: no significant weather observed at this time

METAR text: LSZS 142220Z AUTO 21002KT CAVOK M11/M13 Q1035
Conditions at: LSZS (SAMEDAN , CH) observed 2220 UTC 14 February 2019
Temperature: -11.0°C (12°F)
Dewpoint: -13.0°C ( 9°F) [RH = 85%]
Pressure (altimeter): 30.56 inches Hg (1035.0 mb)
Winds: from the SSW (210 degrees) at 2 MPH (2 knots; 1.0 m/s)
Visibility: 6 or more miles (10+ km)
Ceiling: ceiling and visibility are OK
Clouds: unknown
Weather: no significant weather observed at this time

METAR text: LSZS 142150Z AUTO 21002KT CAVOK M11/M13 Q1035
Conditions at: LSZS (SAMEDAN , CH) observed 2150 UTC 14 February 2019
Temperature: -11.0°C (12°F)
Dewpoint: -13.0°C ( 9°F) [RH = 85%]
Pressure (altimeter): 30.56 inches Hg (1035.0 mb)
Winds: from the SSW (210 degrees) at 2 MPH (2 knots; 1.0 m/s)
Visibility: 6 or more miles (10+ km)
Ceiling: ceiling and visibility are OK
Clouds: unknown
Weather: no significant weather observed at this time

METAR text: LSZS 142120Z AUTO 20004KT 190V250 CAVOK M10/M13 Q1035
Conditions at: LSZS (SAMEDAN , CH) observed 2120 UTC 14 February 2019
Temperature: -10.0°C (14°F)
Dewpoint: -13.0°C ( 9°F) [RH = 79%]
Pressure (altimeter): 30.56 inches Hg (1035.0 mb)
Winds: from the SSW (200 degrees) at 5 MPH (4 knots; 2.1 m/s)
Visibility: 6 or more miles (10+ km)
Ceiling: ceiling and visibility are OK
Clouds: unknown
Weather: no significant weather observed at this time

METAR text: LSZS 142050Z AUTO VRB03KT CAVOK M12/M15 Q1035
Conditions at: LSZS (SAMEDAN , CH) observed 2050 UTC 14 February 2019
Temperature: -12.0°C (10°F)
Dewpoint: -15.0°C ( 5°F) [RH = 78%]
Pressure (altimeter): 30.56 inches Hg (1035.0 mb)
Winds: variable direction winds at 3 MPH (3 knots; 1.5 m/s)
Visibility: 6 or more miles (10+ km)
Ceiling: ceiling and visibility are OK
Clouds: unknown
Weather: no significant weather observed at this time

METAR text: LSZS 142020Z AUTO 22002KT CAVOK M08/M11 Q1035
Conditions at: LSZS (SAMEDAN , CH) observed 2020 UTC 14 February 2019
Temperature: -8.0°C (18°F)
Dewpoint: -11.0°C (12°F) [RH = 79%]
Pressure (altimeter): 30.56 inches Hg (1035.0 mb)
Winds: from the SW (220 degrees) at 2 MPH (2 knots; 1.0 m/s)
Visibility: 6 or more miles (10+ km)
Ceiling: ceiling and visibility are OK
Clouds: unknown
Weather: no significant weather observed at this time

METAR text: LSZS 141950Z AUTO 00000KT CAVOK M11/M14 Q1035
Conditions at: LSZS (SAMEDAN , CH) observed 1950 UTC 14 February 2019
Temperature: -11.0°C (12°F)
Dewpoint: -14.0°C ( 7°F) [RH = 78%]
Pressure (altimeter): 30.56 inches Hg (1035.0 mb)
Winds: calm
Visibility: 6 or more miles (10+ km)
Ceiling: ceiling and visibility are OK
Clouds: unknown
Weather: no significant weather observed at this time

METAR text: LSZS 141920Z AUTO 23002KT CAVOK M07/M11 Q1034
Conditions at: LSZS (SAMEDAN , CH) observed 1920 UTC 14 February 2019
Temperature: -7.0°C (19°F)
Dewpoint: -11.0°C (12°F) [RH = 73%]
Pressure (altimeter): 30.53 inches Hg (1034.0 mb)
Winds: from the SW (230 degrees) at 2 MPH (2 knots; 1.0 m/s)
Visibility: 6 or more miles (10+ km)
Ceiling: ceiling and visibility are OK
Clouds: unknown
Weather: no significant weather observed at this time

METAR text: LSZS 141850Z AUTO VRB01KT CAVOK M07/M11 Q1034
Conditions at: LSZS (SAMEDAN , CH) observed 1850 UTC 14 February 2019
Temperature: -7.0°C (19°F)
Dewpoint: -11.0°C (12°F) [RH = 73%]
Pressure (altimeter): 30.53 inches Hg (1034.0 mb)
Winds: variable direction winds at 1 MPH (1 knots; 0.5 m/s)
Visibility: 6 or more miles (10+ km)
Ceiling: ceiling and visibility are OK
Clouds: unknown
Weather: no significant weather observed at this time

METAR text: LSZS 141820Z AUTO 21002KT CAVOK M07/M12 Q1034
Conditions at: LSZS (SAMEDAN , CH) observed 1820 UTC 14 February 2019
Temperature: -7.0°C (19°F)
Dewpoint: -12.0°C (10°F) [RH = 67%]
Pressure (altimeter): 30.53 inches Hg (1034.0 mb)
Winds: from the SSW (210 degrees) at 2 MPH (2 knots; 1.0 m/s)
Visibility: 6 or more miles (10+ km)
Ceiling: ceiling and visibility are OK
Clouds: unknown
Weather: no significant weather observed at this time

METAR text: LSZS 141750Z AUTO 21002KT CAVOK M06/M11 Q1034
Conditions at: LSZS (SAMEDAN , CH) observed 1750 UTC 14 February 2019
Temperature: -6.0°C (21°F)
Dewpoint: -11.0°C (12°F) [RH = 68%]
Pressure (altimeter): 30.53 inches Hg (1034.0 mb)
Winds: from the SSW (210 degrees) at 2 MPH (2 knots; 1.0 m/s)
Visibility: 6 or more miles (10+ km)
Ceiling: ceiling and visibility are OK
Clouds: unknown
Weather: no significant weather observed at this time

METAR text: LSZS 141720Z VRB03KT CAVOK M04/M10 Q1034 RMK V
Conditions at: LSZS (SAMEDAN , CH) observed 1720 UTC 14 February 2019
Temperature: -4.0°C (25°F)
Dewpoint: -10.0°C (14°F) [RH = 63%]
Pressure (altimeter): 30.53 inches Hg (1034.0 mb)
Winds: variable direction winds at 3 MPH (3 knots; 1.5 m/s)
Visibility: 6 or more miles (10+ km)
Ceiling: ceiling and visibility are OK
Clouds: unknown
Weather: no significant weather observed at this time

METAR text: LSZS 141650Z 20004KT CAVOK M04/M10 Q1034 RMK U
Conditions at: LSZS (SAMEDAN , CH) observed 1650 UTC 14 February 2019
Temperature: -4.0°C (25°F)
Dewpoint: -10.0°C (14°F) [RH = 63%]
Pressure (altimeter): 30.53 inches Hg (1034.0 mb)
Winds: from the SSW (200 degrees) at 5 MPH (4 knots; 2.1 m/s)
Visibility: 6 or more miles (10+ km)
Ceiling: ceiling and visibility are OK
Clouds: unknown
Weather: no significant weather observed at this time

METAR text: LSZS 141620Z VRB02KT CAVOK M00/M09 Q1034 RMK T
Conditions at: LSZS (SAMEDAN , CH) observed 1620 UTC 14 February 2019
Temperature: 0.0°C (32°F)
Dewpoint: -9.0°C (16°F) [RH = 51%]
Pressure (altimeter): 30.53 inches Hg (1034.0 mb)
Winds: variable direction winds at 2 MPH (2 knots; 1.0 m/s)
Visibility: 6 or more miles (10+ km)
Ceiling: ceiling and visibility are OK
Clouds: unknown
Weather: no significant weather observed at this time

METAR text: LSZS 141550Z 02008KT 340V040 CAVOK 02/M09 Q1034 RMK S
Conditions at: LSZS (SAMEDAN , CH) observed 1550 UTC 14 February 2019
Temperature: 2.0°C (36°F)
Dewpoint: -9.0°C (16°F) [RH = 44%]
Pressure (altimeter): 30.53 inches Hg (1034.0 mb)
Winds: from the NNE (20 degrees) at 9 MPH (8 knots; 4.1 m/s)
Visibility: 6 or more miles (10+ km)
Ceiling: ceiling and visibility are OK
Clouds: unknown
Weather: no significant weather observed at this time

METAR text: LSZS 141520Z 04010KT CAVOK 05/M10 Q1033 RMK R
Conditions at: LSZS (SAMEDAN , CH) observed 1520 UTC 14 February 2019
Temperature: 5.0°C (41°F)
Dewpoint: -10.0°C (14°F) [RH = 33%]
Pressure (altimeter): 30.50 inches Hg (1033.0 mb)
Winds: from the NE (40 degrees) at 12 MPH (10 knots; 5.1 m/s)
Visibility: 6 or more miles (10+ km)
Ceiling: ceiling and visibility are OK
Clouds: unknown
Weather: no significant weather observed at this time

METAR text: LSZS 141450Z 04010KT CAVOK 04/M10 Q1033 RMK Q
Conditions at: LSZS (SAMEDAN , CH) observed 1450 UTC 14 February 2019
Temperature: 4.0°C (39°F)
Dewpoint: -10.0°C (14°F) [RH = 35%]
Pressure (altimeter): 30.50 inches Hg (1033.0 mb)
Winds: from the NE (40 degrees) at 12 MPH (10 knots; 5.1 m/s)
Visibility: 6 or more miles (10+ km)
Ceiling: ceiling and visibility are OK
Clouds: unknown
Weather: no significant weather observed at this time

METAR text: LSZS 141420Z 01011KT CAVOK 06/M11 Q1033 RMK P
Conditions at: LSZS (SAMEDAN , CH) observed 1420 UTC 14 February 2019
Temperature: 6.0°C (43°F)
Dewpoint: -11.0°C (12°F) [RH = 28%]
Pressure (altimeter): 30.50 inches Hg (1033.0 mb)
Winds: from the N (10 degrees) at 13 MPH (11 knots; 5.7 m/s)
Visibility: 6 or more miles (10+ km)
Ceiling: ceiling and visibility are OK
Clouds: unknown
Weather: no significant weather observed at this time

METAR text: LSZS 141350Z VRB01KT CAVOK 04/M11 Q1033 RMK O
Conditions at: LSZS (SAMEDAN , CH) observed 1350 UTC 14 February 2019
Temperature: 4.0°C (39°F)
Dewpoint: -11.0°C (12°F) [RH = 32%]
Pressure (altimeter): 30.50 inches Hg (1033.0 mb)
Winds: variable direction winds at 1 MPH (1 knots; 0.5 m/s)
Visibility: 6 or more miles (10+ km)
Ceiling: ceiling and visibility are OK
Clouds: unknown
Weather: no significant weather observed at this time

METAR text: LSZS 141320Z VRB01KT CAVOK 01/M09 Q1034 RMK N
Conditions at: LSZS (SAMEDAN , CH) observed 1320 UTC 14 February 2019
Temperature: 1.0°C (34°F)
Dewpoint: -9.0°C (16°F) [RH = 47%]
Pressure (altimeter): 30.53 inches Hg (1034.0 mb)
Winds: variable direction winds at 1 MPH (1 knots; 0.5 m/s)
Visibility: 6 or more miles (10+ km)
Ceiling: ceiling and visibility are OK
Clouds: unknown
Weather: no significant weather observed at this time

METAR text: LSZS 141250Z 06001KT CAVOK 02/M13 Q1034 RMK M
Conditions at: LSZS (SAMEDAN , CH) observed 1250 UTC 14 February 2019
Temperature: 2.0°C (36°F)
Dewpoint: -13.0°C ( 9°F) [RH = 32%]
Pressure (altimeter): 30.53 inches Hg (1034.0 mb)
Winds: from the ENE (60 degrees) at 1 MPH (1 knots; 0.5 m/s)
Visibility: 6 or more miles (10+ km)
Ceiling: ceiling and visibility are OK
Clouds: unknown
Weather: no significant weather observed at this time

METAR text: LSZS 141220Z 00000KT CAVOK M00/M12 Q1034 RMK L
Conditions at: LSZS (SAMEDAN , CH) observed 1220 UTC 14 February 2019
Temperature: 0.0°C (32°F)
Dewpoint: -12.0°C (10°F) [RH = 40%]
Pressure (altimeter): 30.53 inches Hg (1034.0 mb)
Winds: calm
Visibility: 6 or more miles (10+ km)
Ceiling: ceiling and visibility are OK
Clouds: unknown
Weather: no significant weather observed at this time

METAR text: LSZS 141150Z 03001KT CAVOK M02/M09 Q1035 RMK K
Conditions at: LSZS (SAMEDAN , CH) observed 1150 UTC 14 February 2019
Temperature: -2.0°C (28°F)
Dewpoint: -9.0°C (16°F) [RH = 59%]
Pressure (altimeter): 30.56 inches Hg (1035.0 mb)
Winds: from the NNE (30 degrees) at 1 MPH (1 knots; 0.5 m/s)
Visibility: 6 or more miles (10+ km)
Ceiling: ceiling and visibility are OK
Clouds: unknown
Weather: no significant weather observed at this time

METAR text: LSZS 141120Z VRB01KT CAVOK M02/M11 Q1035 RMK J
Conditions at: LSZS (SAMEDAN , CH) observed 1120 UTC 14 February 2019
Temperature: -2.0°C (28°F)
Dewpoint: -11.0°C (12°F) [RH = 50%]
Pressure (altimeter): 30.56 inches Hg (1035.0 mb)
Winds: variable direction winds at 1 MPH (1 knots; 0.5 m/s)
Visibility: 6 or more miles (10+ km)
Ceiling: ceiling and visibility are OK
Clouds: unknown
Weather: no significant weather observed at this time

METAR text: LSZS 141050Z 01001KT CAVOK M04/M08 Q1035 RMK I
Conditions at: LSZS (SAMEDAN , CH) observed 1050 UTC 14 February 2019
Temperature: -4.0°C (25°F)
Dewpoint: -8.0°C (18°F) [RH = 74%]
Pressure (altimeter): 30.56 inches Hg (1035.0 mb)
Winds: from the N (10 degrees) at 1 MPH (1 knots; 0.5 m/s)
Visibility: 6 or more miles (10+ km)
Ceiling: ceiling and visibility are OK
Clouds: unknown
Weather: no significant weather observed at this time

Forecast for: LSZS (SAMEDAN , CH)
Text: TAF LSZS 151425Z 1515/1524 VRB03KT CAVOK TX05/1515Z
Forecast period: 1500 UTC 15 February 2019 to 0000 UTC 16 February 2019
Forecast type: FROM: standard forecast or significant change
Winds: variable direction winds at 3 MPH (3 knots; 1.5 m/s)
Visibility: 6 or more miles 10+ km)
Ceiling: unknown
Clouds: missing
Weather: no significant weather forecast for this period